createdAt,value
2022-10-26T05:04:13.102Z,12.90
2022-10-26T05:09:14.951Z,12.90
2022-10-26T05:14:16.753Z,12.90
2022-10-26T05:19:18.560Z,12.90
2022-10-26T05:24:20.373Z,12.90
2022-10-26T05:29:22.219Z,12.90
2022-10-26T05:34:23.993Z,13.00
2022-10-26T05:39:25.741Z,13.00
2022-10-26T05:44:27.582Z,13.00
2022-10-26T05:49:29.361Z,13.00
2022-10-26T05:54:31.122Z,13.00
2022-10-26T05:59:33.241Z,13.00
2022-10-26T06:04:48.160Z,13.10
2022-10-26T06:09:51.058Z,13.10
2022-10-26T06:14:53.191Z,13.10
2022-10-26T06:20:17.773Z,13.10
2022-10-26T06:25:27.832Z,13.10
2022-10-26T06:30:29.696Z,13.10
2022-10-26T06:35:34.131Z,13.10
2022-10-26T06:40:37.756Z,13.10
2022-10-26T06:45:41.399Z,13.10
2022-10-26T06:51:01.462Z,13.10
2022-10-26T06:56:03.520Z,13.10
2022-10-26T07:01:05.770Z,13.10
2022-10-26T07:06:09.210Z,13.20
2022-10-26T07:11:11.009Z,13.20
2022-10-26T07:16:12.814Z,13.20
2022-10-26T07:21:14.576Z,13.20
2022-10-26T07:26:16.353Z,13.20
2022-10-26T07:31:18.194Z,13.20
2022-10-26T07:36:20.073Z,13.30
2022-10-26T07:41:21.844Z,13.30
2022-10-26T07:46:24.151Z,13.40
2022-10-26T07:51:25.949Z,13.40
2022-10-26T07:56:28.760Z,13.40
2022-10-26T08:01:30.728Z,13.50
2022-10-26T08:06:32.598Z,13.60
2022-10-26T08:11:37.006Z,13.60
2022-10-26T08:16:40.502Z,13.70
2022-10-26T08:21:42.326Z,13.90
2022-10-26T08:26:44.147Z,13.90
2022-10-26T08:31:48.170Z,14.10
2022-10-26T08:36:50.609Z,14.20
2022-10-26T08:41:57.984Z,14.40
2022-10-26T08:47:07.342Z,14.50
2022-10-26T08:52:13.196Z,14.70
2022-10-26T08:57:34.156Z,14.90
2022-10-26T09:02:35.949Z,15.00
2022-10-26T09:07:51.383Z,15.30
2022-10-26T09:13:19.679Z,15.40
2022-10-26T09:18:33.687Z,15.70
2022-10-26T09:23:59.679Z,16.00
2022-10-26T09:29:07.281Z,16.20
2022-10-26T09:34:18.196Z,16.30
2022-10-26T09:39:31.654Z,16.50
2022-10-26T09:44:50.595Z,16.60
2022-10-26T09:50:07.261Z,16.70
2022-10-26T09:55:12.216Z,16.80
2022-10-26T10:00:16.585Z,17.00
2022-10-26T10:05:50.428Z,17.10
2022-10-26T10:11:07.690Z,17.20
2022-10-26T10:16:14.518Z,17.30
2022-10-26T10:21:16.367Z,17.40
2022-10-26T10:26:18.215Z,17.50
2022-10-26T10:31:28.717Z,17.60
2022-10-26T10:36:30.594Z,17.60
2022-10-26T10:41:36.605Z,17.70
2022-10-26T10:46:38.528Z,17.80
2022-10-26T10:51:40.500Z,17.90
2022-10-26T10:56:47.574Z,18.00
2022-10-26T11:01:59.451Z,18.10
2022-10-26T11:07:04.130Z,18.20
2022-10-26T11:12:15.637Z,18.30
2022-10-26T11:17:23.341Z,18.30
2022-10-26T11:22:58.560Z,18.50
2022-10-26T11:28:06.352Z,18.50
2022-10-26T11:33:23.628Z,18.50
2022-10-26T11:38:56.915Z,18.60
2022-10-26T11:44:31.878Z,18.60
2022-10-26T11:49:45.520Z,18.70
2022-10-26T11:54:52.311Z,18.70
2022-10-26T12:00:01.347Z,18.70
2022-10-26T12:05:08.918Z,18.80
2022-10-26T12:10:31.836Z,19.00
2022-10-26T12:16:04.399Z,19.00
2022-10-26T12:21:08.442Z,19.10
2022-10-26T12:26:28.706Z,19.10
2022-10-26T12:31:36.699Z,19.20
2022-10-26T12:36:56.854Z,19.30
2022-10-26T12:42:10.099Z,19.40
2022-10-26T12:47:32.366Z,19.50
2022-10-26T12:52:36.673Z,19.50
2022-10-26T12:57:51.045Z,19.60
2022-10-26T13:03:02.013Z,19.70
2022-10-26T13:08:09.843Z,19.70
2022-10-26T13:13:23.679Z,19.80
2022-10-26T13:18:25.579Z,19.90
2022-10-26T13:23:28.573Z,20.00
2022-10-26T13:28:31.339Z,20.00
2022-10-26T13:33:41.836Z,20.00
2022-10-26T13:38:45.570Z,20.00
2022-10-26T13:43:47.701Z,20.10
2022-10-26T13:48:50.207Z,20.10
2022-10-26T13:54:02.594Z,20.10
2022-10-26T13:59:11.767Z,20.20
2022-10-26T14:04:26.473Z,20.20
2022-10-26T14:09:29.470Z,20.30
2022-10-26T14:14:36.599Z,20.40
2022-10-26T14:19:40.248Z,20.40
2022-10-26T14:24:51.611Z,20.40
2022-10-26T14:30:20.430Z,20.40
2022-10-26T14:35:17.131Z,20.40
2022-10-26T14:40:25.665Z,20.40
2022-10-26T14:45:47.528Z,20.40
2022-10-26T14:50:59.355Z,20.30
2022-10-26T14:56:01.289Z,20.30
2022-10-26T15:01:22.094Z,20.40
2022-10-26T15:06:34.244Z,20.30
2022-10-26T15:11:41.943Z,20.30
2022-10-26T15:16:54.508Z,20.20
2022-10-26T15:21:56.556Z,20.20
2022-10-26T15:26:58.700Z,20.10
2022-10-26T15:32:01.447Z,20.00
2022-10-26T15:37:03.806Z,20.00
2022-10-26T15:42:12.640Z,19.90
2022-10-26T15:47:19.147Z,19.90
2022-10-26T15:52:21.082Z,19.90
2022-10-26T15:57:23.910Z,19.90
2022-10-26T16:02:25.932Z,19.80
2022-10-26T16:07:28.146Z,19.80
2022-10-26T16:12:29.956Z,19.80
2022-10-26T16:17:33.453Z,19.70
2022-10-26T16:22:37.645Z,19.60
2022-10-26T16:27:40.815Z,19.50
2022-10-26T16:32:42.929Z,19.40
2022-10-26T16:37:45.532Z,19.40
2022-10-26T16:42:47.420Z,19.40
2022-10-26T16:47:49.829Z,19.30
2022-10-26T16:52:51.899Z,19.20
2022-10-26T16:57:53.676Z,19.20
2022-10-26T17:02:55.476Z,19.00
2022-10-26T17:07:57.219Z,18.90
